Terminal Aerodrome Forecast
Issued by NWS

Home | Current Version | Previous Version | Text Only | Print | Product List | Glossary Off
Versions: 1 2 3 4 5 6 7 8 9 10 11 12 13 14 15 16 17 18 19 20 21 22 23 24 25 26 27 28 29 30

881
FTUS43 KGRB 021720
TAFRHI
TAF
KRHI 021720Z 0218/0318 29003KT P6SM OVC015
     FM031300 27003KT P6SM OVC012
     FM031600 27004KT P6SM BKN015=

USA.gov is the U.S. government's official web portal to all federal, state and local government web resources and services.